createdAt,value
2019-05-22T00:01:51.139Z,21.02
2019-05-22T00:04:25.814Z,19.95
2019-05-22T00:06:54.838Z,21.15
2019-05-22T00:09:23.785Z,21.70
2019-05-22T00:11:52.353Z,19.73
2019-05-22T00:14:20.054Z,21.17
2019-05-22T00:16:47.698Z,22.60
2019-05-22T00:19:15.065Z,23.83
2019-05-22T00:21:42.403Z,23.18
2019-05-22T00:24:11.319Z,24.00
2019-05-22T00:26:40.281Z,23.92
2019-05-22T00:29:07.863Z,28.05
2019-05-22T00:31:35.149Z,23.95
2019-05-22T00:34:04.522Z,25.00
2019-05-22T00:36:32.973Z,26.30
2019-05-22T00:39:00.443Z,27.73
2019-05-22T00:41:30.458Z,26.02
2019-05-22T00:43:59.530Z,29.63
2019-05-22T00:46:28.304Z,28.25
2019-05-22T00:48:55.622Z,34.38
2019-05-22T00:51:36.214Z,30.97
2019-05-22T00:54:25.059Z,30.27
2019-05-22T00:56:56.579Z,33.58
2019-05-22T00:59:34.653Z,28.80
2019-05-22T01:02:03.127Z,29.60
2019-05-22T01:04:32.043Z,32.75
2019-05-22T01:07:00.940Z,28.12
2019-05-22T01:09:44.376Z,31.10
2019-05-22T01:12:16.947Z,29.32
2019-05-22T01:14:44.797Z,34.25
2019-05-22T01:17:12.420Z,29.57
2019-05-22T01:19:40.592Z,30.40
2019-05-22T01:22:09.526Z,28.60
2019-05-22T01:24:38.313Z,31.00
2019-05-22T01:27:07.240Z,32.42
2019-05-22T01:29:36.177Z,30.92
2019-05-22T01:32:21.475Z,29.95
2019-05-22T01:34:49.184Z,34.85
2019-05-22T01:37:18.123Z,33.98
2019-05-22T01:39:51.543Z,33.48
2019-05-22T01:42:20.747Z,34.10
2019-05-22T01:45:00.599Z,35.65
2019-05-22T01:47:20.831Z,35.73
2019-05-22T01:49:49.667Z,34.73
2019-05-22T01:52:17.531Z,34.73
2019-05-22T01:54:45.232Z,34.03
2019-05-22T01:57:12.522Z,44.03
2019-05-22T01:59:41.483Z,38.08
2019-05-22T02:02:09.455Z,41.10
2019-05-22T02:04:38.541Z,37.15
2019-05-22T02:07:07.470Z,41.15
2019-05-22T02:09:37.411Z,39.65
2019-05-22T02:12:07.031Z,40.10
2019-05-22T02:14:34.823Z,41.50
2019-05-22T02:17:02.896Z,40.50
2019-05-22T02:19:30.201Z,42.90
2019-05-22T02:21:59.150Z,43.25
2019-05-22T02:24:26.440Z,41.70
2019-05-22T02:26:54.307Z,46.28
2019-05-22T02:29:22.053Z,44.30
2019-05-22T02:31:54.994Z,51.83
2019-05-22T02:34:19.808Z,47.90
2019-05-22T02:36:47.374Z,53.15
2019-05-22T02:39:19.519Z,51.92
2019-05-22T02:41:48.253Z,52.08
2019-05-22T02:44:16.333Z,50.78
2019-05-22T02:46:43.705Z,46.50
2019-05-22T02:49:11.661Z,50.45
2019-05-22T02:51:40.020Z,52.90
2019-05-22T02:54:08.075Z,46.45
2019-05-22T02:56:36.051Z,45.35
2019-05-22T02:59:04.336Z,43.45
2019-05-22T03:01:31.636Z,49.50
2019-05-22T03:03:58.935Z,49.05
2019-05-22T03:06:26.263Z,42.55
2019-05-22T03:08:58.271Z,43.30
2019-05-22T03:11:28.398Z,47.13
2019-05-22T03:13:58.978Z,49.03
2019-05-22T03:16:26.457Z,44.38
2019-05-22T03:19:08.464Z,49.65
2019-05-22T03:21:23.234Z,42.17
2019-05-22T03:23:51.192Z,44.73
2019-05-22T03:26:18.585Z,42.45
2019-05-22T03:28:46.150Z,45.30
2019-05-22T03:31:13.703Z,39.03
2019-05-22T03:33:41.170Z,42.35
2019-05-22T03:36:10.469Z,40.75
2019-05-22T03:38:38.961Z,44.40
2019-05-22T03:41:07.030Z,47.58
2019-05-22T03:43:35.195Z,37.55
2019-05-22T03:46:07.662Z,40.03
2019-05-22T03:48:35.227Z,42.58
2019-05-22T03:51:09.348Z,37.42
2019-05-22T03:53:36.687Z,42.33
2019-05-22T03:56:03.967Z,42.85
2019-05-22T03:58:31.335Z,41.92
2019-05-22T04:00:58.667Z,48.78
2019-05-22T04:03:26.456Z,38.92
2019-05-22T04:05:53.926Z,35.78
2019-05-22T04:08:22.880Z,40.38
2019-05-22T04:11:01.908Z,36.55
2019-05-22T04:13:29.459Z,41.50
2019-05-22T04:15:57.831Z,41.28
2019-05-22T04:18:26.009Z,37.88
2019-05-22T04:20:53.577Z,41.80
2019-05-22T04:23:20.971Z,37.65
2019-05-22T04:25:48.283Z,40.60
2019-05-22T04:28:15.975Z,37.80
2019-05-22T04:30:43.351Z,36.73
2019-05-22T04:33:11.347Z,39.13
2019-05-22T04:35:39.510Z,35.78
2019-05-22T04:38:07.698Z,33.85
2019-05-22T04:40:39.547Z,33.95
2019-05-22T04:43:06.870Z,38.17
2019-05-22T04:45:34.223Z,39.10
2019-05-22T04:48:02.407Z,38.33
2019-05-22T04:50:30.251Z,33.25
2019-05-22T04:52:57.557Z,32.65
2019-05-22T04:55:25.231Z,41.63
2019-05-22T04:57:52.990Z,39.18
2019-05-22T05:00:20.980Z,30.40
2019-05-22T05:02:48.370Z,40.30
2019-05-22T05:05:16.134Z,36.88
2019-05-22T05:07:43.798Z,32.50
2019-05-22T05:10:11.128Z,32.45
2019-05-22T05:12:40.087Z,32.50
2019-05-22T05:15:07.955Z,34.95
2019-05-22T05:17:35.405Z,33.80
2019-05-22T05:20:03.280Z,31.15
2019-05-22T05:22:32.221Z,33.85
2019-05-22T05:24:59.532Z,36.23
2019-05-22T05:27:26.990Z,37.67
2019-05-22T05:29:54.315Z,33.92
2019-05-22T05:32:22.027Z,33.45
2019-05-22T05:34:50.938Z,33.38
2019-05-22T05:37:19.879Z,30.57
2019-05-22T05:39:48.884Z,31.87
2019-05-22T05:42:16.182Z,30.60
2019-05-22T05:44:43.502Z,34.98
2019-05-22T05:47:10.790Z,31.40
2019-05-22T05:49:38.108Z,31.50
2019-05-22T05:52:07.094Z,32.67
2019-05-22T05:54:35.164Z,30.43
2019-05-22T05:57:12.871Z,33.63
2019-05-22T05:59:40.429Z,35.63
2019-05-22T06:02:08.019Z,38.53
2019-05-22T06:04:36.362Z,37.75
2019-05-22T06:07:19.063Z,32.23
2019-05-22T06:09:46.811Z,33.38
2019-05-22T06:12:14.422Z,32.08
2019-05-22T06:14:41.728Z,26.45
2019-05-22T06:17:17.966Z,26.30
2019-05-22T06:19:46.957Z,25.37
2019-05-22T06:22:14.927Z,25.65
2019-05-22T06:24:49.837Z,30.40
2019-05-22T06:27:18.803Z,27.48
2019-05-22T06:29:53.502Z,27.02
2019-05-22T06:32:38.296Z,25.90
2019-05-22T06:35:07.563Z,26.30
2019-05-22T06:37:36.530Z,23.05
2019-05-22T06:40:05.860Z,26.45
2019-05-22T06:42:33.829Z,25.45
2019-05-22T06:45:01.302Z,25.45
2019-05-22T06:47:29.914Z,31.27
2019-05-22T06:49:57.228Z,27.32
2019-05-22T06:52:24.550Z,25.82
2019-05-22T06:54:51.947Z,25.90
2019-05-22T06:57:21.199Z,30.75
2019-05-22T07:00:10.754Z,27.15
2019-05-22T07:02:20.155Z,30.10
2019-05-22T07:04:48.147Z,26.00
2019-05-22T07:07:15.520Z,26.93
2019-05-22T07:09:44.673Z,25.40
2019-05-22T07:12:13.636Z,27.62
2019-05-22T07:14:54.582Z,26.52
2019-05-22T07:17:23.478Z,29.85
2019-05-22T07:19:50.777Z,24.23
2019-05-22T07:22:18.250Z,25.15
2019-05-22T07:24:45.559Z,25.48
2019-05-22T07:27:18.431Z,24.23
2019-05-22T07:29:45.752Z,25.37
2019-05-22T07:32:13.055Z,30.75
2019-05-22T07:34:40.430Z,27.15
2019-05-22T07:37:07.754Z,27.73
2019-05-22T07:39:35.050Z,27.73
2019-05-22T07:42:02.363Z,25.02
2019-05-22T07:44:29.692Z,21.57
2019-05-22T07:46:57.008Z,25.12
2019-05-22T07:49:24.302Z,23.32
2019-05-22T07:51:58.853Z,21.35
2019-05-22T07:54:20.737Z,18.73
2019-05-22T07:56:48.024Z,19.87
2019-05-22T07:59:15.595Z,17.17
2019-05-22T08:01:42.918Z,20.72
2019-05-22T08:04:10.202Z,23.42
2019-05-22T08:06:37.526Z,23.07
2019-05-22T08:09:07.576Z,21.27
2019-05-22T08:11:35.104Z,22.85
2019-05-22T08:14:02.690Z,21.23
2019-05-22T08:16:30.022Z,26.90
2019-05-22T08:18:57.300Z,17.55
2019-05-22T08:21:24.863Z,21.02
2019-05-22T08:23:52.326Z,19.15
2019-05-22T08:26:20.991Z,20.15
2019-05-22T08:28:48.299Z,22.00
2019-05-22T08:31:15.744Z,16.87
2019-05-22T08:33:43.094Z,22.37
2019-05-22T08:36:10.561Z,20.85
2019-05-22T08:38:37.957Z,20.60
2019-05-22T08:41:06.899Z,17.20
2019-05-22T08:43:55.854Z,18.57
2019-05-22T08:46:04.022Z,15.75
2019-05-22T08:48:32.552Z,19.70
2019-05-22T08:51:00.068Z,18.35
2019-05-22T08:53:27.810Z,19.17
2019-05-22T08:55:55.099Z,18.40
2019-05-22T08:58:23.182Z,18.82
2019-05-22T09:00:50.478Z,21.20
2019-05-22T09:03:18.151Z,21.00
2019-05-22T09:05:45.535Z,19.42
2019-05-22T09:08:12.853Z,16.37
2019-05-22T09:10:40.171Z,16.23
2019-05-22T09:13:07.478Z,14.78
2019-05-22T09:15:34.845Z,14.85
2019-05-22T09:18:02.613Z,14.45
2019-05-22T09:20:46.452Z,13.20
2019-05-22T09:22:59.636Z,15.68
2019-05-22T09:25:27.803Z,13.85
2019-05-22T09:27:55.143Z,15.25
2019-05-22T09:30:22.433Z,14.75
2019-05-22T09:32:49.759Z,15.70
2019-05-22T09:35:17.050Z,15.70
2019-05-22T09:37:44.372Z,14.47
2019-05-22T09:40:11.677Z,14.38
2019-05-22T09:42:38.980Z,14.78
2019-05-22T09:45:08.239Z,10.58
2019-05-22T09:47:35.564Z,14.70
2019-05-22T09:50:03.436Z,14.87
2019-05-22T09:52:30.727Z,11.08
2019-05-22T09:54:58.082Z,10.85
2019-05-22T09:57:25.376Z,10.35
2019-05-22T09:59:52.704Z,13.25
2019-05-22T10:02:20.000Z,10.85
2019-05-22T10:04:47.706Z,14.58
2019-05-22T10:07:14.979Z,10.98
2019-05-22T10:09:42.747Z,9.15
2019-05-22T10:12:11.566Z,10.75
2019-05-22T10:14:39.615Z,21.68
2019-05-22T10:17:07.453Z,9.20
2019-05-22T10:19:34.935Z,8.83
2019-05-22T10:22:03.663Z,10.08
2019-05-22T10:24:31.141Z,9.65
2019-05-22T10:26:58.711Z,10.63
2019-05-22T10:29:26.148Z,8.95
2019-05-22T10:31:53.485Z,10.60
2019-05-22T10:34:20.778Z,12.65
2019-05-22T10:36:48.108Z,8.50
2019-05-22T10:39:15.418Z,8.83
2019-05-22T10:41:42.717Z,9.28
2019-05-22T10:44:10.211Z,10.23
2019-05-22T10:46:37.657Z,9.38
2019-05-22T10:49:04.956Z,10.05
2019-05-22T10:51:32.288Z,9.08
2019-05-22T10:53:59.946Z,8.90
2019-05-22T10:56:27.267Z,7.55
2019-05-22T10:58:54.562Z,8.80
2019-05-22T11:01:22.030Z,8.03
2019-05-22T11:03:49.437Z,13.55
2019-05-22T11:06:16.902Z,15.03
2019-05-22T11:08:44.232Z,19.40
2019-05-22T11:11:11.609Z,9.23
2019-05-22T11:13:39.076Z,11.70
2019-05-22T11:16:06.755Z,15.28
2019-05-22T11:18:35.087Z,13.00
2019-05-22T11:21:03.171Z,8.80
2019-05-22T11:23:31.125Z,9.15
2019-05-22T11:25:58.399Z,7.05
2019-05-22T11:28:26.958Z,7.15
2019-05-22T11:30:54.330Z,8.98
2019-05-22T11:33:21.791Z,7.85
2019-05-22T11:35:49.161Z,8.45
2019-05-22T11:38:17.441Z,17.32
2019-05-22T11:40:45.309Z,7.50
2019-05-22T11:43:13.070Z,14.43
2019-05-22T11:45:40.374Z,16.23
2019-05-22T11:48:08.165Z,8.93
2019-05-22T11:50:35.645Z,14.65
2019-05-22T11:53:02.966Z,8.05
2019-05-22T11:55:43.725Z,11.10
2019-05-22T11:57:59.676Z,7.70
2019-05-22T12:00:27.040Z,10.75
2019-05-22T12:02:54.503Z,7.87
2019-05-22T12:05:21.901Z,25.62
2019-05-22T12:07:50.052Z,7.40
2019-05-22T12:10:17.531Z,13.22
2019-05-22T12:12:44.871Z,5.60
2019-05-22T12:15:12.274Z,4.95
2019-05-22T12:17:39.855Z,8.35
2019-05-22T12:20:07.321Z,14.23
2019-05-22T12:22:34.930Z,16.80
2019-05-22T12:25:02.223Z,7.03
2019-05-22T12:27:29.517Z,10.03
2019-05-22T12:29:56.915Z,9.28
2019-05-22T12:32:24.601Z,10.45
2019-05-22T12:34:52.042Z,12.03
2019-05-22T12:37:19.358Z,9.08
2019-05-22T12:39:46.743Z,14.90
2019-05-22T12:42:15.106Z,16.57
2019-05-22T12:44:42.502Z,6.67
2019-05-22T12:47:09.820Z,9.00
2019-05-22T12:49:37.167Z,7.70
2019-05-22T12:52:06.171Z,8.88
2019-05-22T12:54:46.263Z,7.65
2019-05-22T12:57:03.041Z,11.53
2019-05-22T12:59:30.344Z,6.12
2019-05-22T13:01:58.018Z,17.60
2019-05-22T13:04:25.343Z,14.95
2019-05-22T13:06:52.637Z,3.67
2019-05-22T13:09:20.200Z,6.47
2019-05-22T13:11:47.548Z,6.20
2019-05-22T13:14:14.839Z,7.17
2019-05-22T13:16:47.936Z,5.08
2019-05-22T13:19:11.148Z,6.95
2019-05-22T13:21:39.339Z,15.60
2019-05-22T13:24:20.171Z,7.72
2019-05-22T13:26:47.845Z,6.25
2019-05-22T13:29:15.147Z,4.70
2019-05-22T13:31:43.015Z,4.55
2019-05-22T13:34:11.310Z,4.37
2019-05-22T13:36:38.595Z,4.15
2019-05-22T13:39:07.968Z,4.70
2019-05-22T13:41:35.319Z,6.55
2019-05-22T13:44:03.796Z,6.40
2019-05-22T13:46:31.449Z,7.37
2019-05-22T13:48:58.758Z,7.03
2019-05-22T13:51:26.046Z,11.20
2019-05-22T13:53:53.367Z,13.95
2019-05-22T13:56:25.046Z,9.83
2019-05-22T13:58:49.667Z,8.48
2019-05-22T14:01:17.053Z,6.40
2019-05-22T14:03:44.395Z,6.55
2019-05-22T14:06:11.632Z,10.58
2019-05-22T14:08:38.936Z,9.43
2019-05-22T14:11:06.872Z,5.70
2019-05-22T14:13:34.369Z,4.75
2019-05-22T14:16:01.689Z,7.28
2019-05-22T14:18:28.984Z,5.28
2019-05-22T14:20:56.279Z,6.33
2019-05-22T14:23:23.605Z,4.12
2019-05-22T14:25:51.470Z,4.62
2019-05-22T14:28:20.385Z,6.10
2019-05-22T14:30:47.697Z,7.67
2019-05-22T14:33:14.976Z,4.50
2019-05-22T14:35:49.399Z,6.92
2019-05-22T14:38:13.246Z,5.20
2019-05-22T14:40:40.611Z,6.25
2019-05-22T14:43:07.958Z,5.28
2019-05-22T14:45:35.404Z,3.67
2019-05-22T14:48:02.698Z,7.93
2019-05-22T14:50:32.710Z,5.92
2019-05-22T14:52:59.232Z,5.22
2019-05-22T14:55:26.888Z,5.40
2019-05-22T14:57:54.284Z,6.60
2019-05-22T15:00:22.948Z,7.20
2019-05-22T15:02:55.006Z,5.03
2019-05-22T15:05:19.444Z,7.65
2019-05-22T15:07:46.735Z,5.50
2019-05-22T15:10:16.847Z,4.65
2019-05-22T15:12:42.990Z,7.85
2019-05-22T15:15:10.432Z,4.67
2019-05-22T15:17:37.741Z,3.90
2019-05-22T15:20:08.046Z,4.83
2019-05-22T15:22:35.632Z,2.85
2019-05-22T15:25:04.383Z,4.00
2019-05-22T15:27:31.749Z,3.50
2019-05-22T15:29:59.024Z,5.55
2019-05-22T15:32:26.346Z,3.52
2019-05-22T15:34:53.705Z,4.08
2019-05-22T15:37:21.187Z,4.05
2019-05-22T15:39:48.525Z,3.27
2019-05-22T15:42:35.808Z,4.05
2019-05-22T15:45:05.259Z,2.72
2019-05-22T15:47:51.831Z,3.02
2019-05-22T15:50:01.509Z,6.35
2019-05-22T15:52:30.432Z,3.12
2019-05-22T15:54:57.765Z,3.02
2019-05-22T15:57:25.512Z,6.67
2019-05-22T15:59:52.815Z,3.95
2019-05-22T16:02:22.039Z,4.03
2019-05-22T16:04:49.457Z,3.40
2019-05-22T16:07:16.940Z,3.83
2019-05-22T16:09:44.595Z,3.67
2019-05-22T16:12:12.165Z,9.18
2019-05-22T16:14:39.744Z,3.65
2019-05-22T16:17:07.212Z,5.85
2019-05-22T16:19:34.505Z,3.17
2019-05-22T16:22:03.746Z,3.47
2019-05-22T16:24:31.038Z,3.40
2019-05-22T16:26:58.398Z,2.45
2019-05-22T16:29:26.174Z,2.30
2019-05-22T16:31:53.725Z,4.05
2019-05-22T16:34:21.107Z,2.80
2019-05-22T16:36:48.445Z,2.90
2019-05-22T16:39:16.297Z,2.62
2019-05-22T16:41:44.180Z,3.90
2019-05-22T16:44:12.124Z,2.35
2019-05-22T16:46:40.288Z,4.67
2019-05-22T16:49:07.592Z,2.87
2019-05-22T16:51:35.730Z,5.08
2019-05-22T16:54:04.333Z,3.52
2019-05-22T16:56:32.002Z,6.00
2019-05-22T16:58:59.459Z,2.80
2019-05-22T17:01:27.051Z,4.15
2019-05-22T17:03:54.825Z,2.40
2019-05-22T17:06:22.201Z,3.45
2019-05-22T17:08:50.131Z,2.00
2019-05-22T17:11:17.441Z,3.60
2019-05-22T17:13:44.747Z,9.08
2019-05-22T17:16:12.205Z,11.83
2019-05-22T17:18:47.420Z,7.87
2019-05-22T17:21:08.456Z,4.72
2019-05-22T17:23:35.767Z,2.70
2019-05-22T17:26:03.217Z,2.60
2019-05-22T17:28:30.476Z,2.65
2019-05-22T17:30:58.236Z,1.67
2019-05-22T17:33:26.152Z,2.72
2019-05-22T17:35:54.796Z,3.10
2019-05-22T17:38:22.236Z,2.90
2019-05-22T17:40:49.558Z,2.42
2019-05-22T17:43:17.017Z,3.45
2019-05-22T17:45:44.761Z,3.87
2019-05-22T17:48:12.116Z,3.80
2019-05-22T17:50:39.573Z,3.45
2019-05-22T17:53:06.884Z,3.52
2019-05-22T17:55:34.380Z,2.67
2019-05-22T17:58:01.910Z,4.25
2019-05-22T18:00:39.789Z,2.72
2019-05-22T18:03:07.084Z,2.70
2019-05-22T18:05:34.388Z,2.00
2019-05-22T18:08:01.780Z,3.27
2019-05-22T18:10:30.210Z,2.77
2019-05-22T18:12:57.478Z,2.40
2019-05-22T18:15:24.802Z,4.17
2019-05-22T18:17:52.107Z,2.60
2019-05-22T18:20:19.697Z,2.92
2019-05-22T18:22:47.012Z,7.20
2019-05-22T18:25:15.083Z,4.83
2019-05-22T18:27:42.634Z,3.12
2019-05-22T18:30:09.942Z,2.75
2019-05-22T18:32:38.528Z,2.58
2019-05-22T18:35:05.850Z,3.55
2019-05-22T18:37:33.143Z,3.20
2019-05-22T18:40:00.429Z,2.90
2019-05-22T18:42:28.071Z,3.15
2019-05-22T18:44:55.331Z,3.70
2019-05-22T18:47:22.924Z,3.92
2019-05-22T18:49:50.830Z,4.20
2019-05-22T18:52:18.151Z,3.27
2019-05-22T18:54:45.457Z,4.55
2019-05-22T18:57:12.799Z,4.35
2019-05-22T18:59:40.110Z,3.60
2019-05-22T19:02:09.224Z,4.35
2019-05-22T19:04:36.816Z,4.80
2019-05-22T19:07:04.291Z,5.62
2019-05-22T19:09:31.664Z,6.60
2019-05-22T19:11:58.944Z,5.37
2019-05-22T19:14:26.518Z,4.40
2019-05-22T19:16:53.831Z,7.05
2019-05-22T19:19:21.192Z,5.40
2019-05-22T19:21:48.428Z,6.17
2019-05-22T19:24:15.741Z,6.55
2019-05-22T19:26:43.293Z,7.20
2019-05-22T19:29:10.862Z,7.40
2019-05-22T19:31:38.177Z,6.78
2019-05-22T19:34:05.501Z,7.33
2019-05-22T19:36:32.789Z,7.53
2019-05-22T19:39:00.183Z,7.97
2019-05-22T19:41:27.650Z,6.92
2019-05-22T19:43:55.345Z,8.78
2019-05-22T19:46:22.622Z,7.83
2019-05-22T19:48:49.920Z,23.00
2019-05-22T19:51:17.536Z,8.20
2019-05-22T19:53:46.326Z,8.05
2019-05-22T19:56:14.566Z,8.90
2019-05-22T19:58:41.873Z,8.00
2019-05-22T20:01:09.515Z,10.48
2019-05-22T20:03:36.804Z,8.68
2019-05-22T20:06:05.384Z,7.83
2019-05-22T20:08:36.088Z,8.20
2019-05-22T20:11:01.820Z,6.50
2019-05-22T20:13:29.103Z,6.67
2019-05-22T20:15:56.429Z,6.95
2019-05-22T20:18:23.724Z,10.63
2019-05-22T20:20:51.611Z,7.87
2019-05-22T20:23:32.968Z,9.55
2019-05-22T20:25:49.145Z,6.97
2019-05-22T20:28:16.713Z,11.40
2019-05-22T20:30:44.007Z,8.10
2019-05-22T20:33:11.521Z,6.80
2019-05-22T20:35:38.804Z,8.50
2019-05-22T20:38:07.373Z,7.47
2019-05-22T20:40:35.315Z,8.38
2019-05-22T20:43:03.775Z,8.28
2019-05-22T20:45:32.171Z,10.60
2019-05-22T20:48:03.670Z,9.23
2019-05-22T20:50:30.983Z,13.75
2019-05-22T20:52:58.783Z,12.05
2019-05-22T20:55:26.066Z,16.55
2019-05-22T20:57:53.448Z,13.00
2019-05-22T21:00:21.835Z,14.58
2019-05-22T21:02:50.663Z,13.93
2019-05-22T21:05:19.801Z,15.05
2019-05-22T21:07:48.867Z,11.28
2019-05-22T21:10:16.961Z,11.20
2019-05-22T21:12:44.904Z,11.53
2019-05-22T21:15:12.212Z,11.30
2019-05-22T21:17:39.702Z,12.78
2019-05-22T21:20:07.262Z,12.60
2019-05-22T21:22:34.562Z,11.63
2019-05-22T21:25:02.064Z,15.38
2019-05-22T21:27:29.874Z,21.87
2019-05-22T21:29:57.567Z,16.05
2019-05-22T21:32:24.935Z,14.75
2019-05-22T21:34:52.314Z,11.40
2019-05-22T21:37:19.639Z,14.55
2019-05-22T21:39:47.500Z,12.85
2019-05-22T21:42:15.171Z,12.58
2019-05-22T21:44:42.558Z,11.97
2019-05-22T21:47:10.324Z,12.03
2019-05-22T21:49:38.955Z,11.20
2019-05-22T21:52:06.591Z,11.93
2019-05-22T21:54:33.959Z,14.30
2019-05-22T21:57:01.267Z,11.97
2019-05-22T21:59:28.932Z,22.52
2019-05-22T22:02:01.062Z,17.05
2019-05-22T22:04:30.066Z,14.80
2019-05-22T22:06:57.735Z,11.65
2019-05-22T22:09:26.672Z,12.93
2019-05-22T22:11:54.167Z,12.73
2019-05-22T22:14:22.122Z,13.40
2019-05-22T22:16:49.714Z,12.63
2019-05-22T22:19:18.307Z,13.60
2019-05-22T22:21:45.893Z,13.90
2019-05-22T22:24:13.195Z,13.90
2019-05-22T22:26:40.539Z,15.10
2019-05-22T22:29:07.968Z,12.90
2019-05-22T22:31:35.834Z,11.90
2019-05-22T22:34:05.553Z,11.83
2019-05-22T22:36:33.021Z,14.07
2019-05-22T22:39:00.309Z,12.50
2019-05-22T22:41:28.003Z,12.70
2019-05-22T22:43:55.295Z,12.82
2019-05-22T22:46:39.912Z,14.40
2019-05-22T22:49:08.199Z,13.70
2019-05-22T22:51:35.574Z,14.07
2019-05-22T22:54:04.802Z,13.22
2019-05-22T22:56:32.128Z,13.43
2019-05-22T22:59:00.419Z,13.48
2019-05-22T23:01:30.328Z,14.58
2019-05-22T23:03:58.952Z,14.18
2019-05-22T23:06:26.586Z,13.20
2019-05-22T23:08:54.360Z,12.68
2019-05-22T23:11:22.467Z,11.63
2019-05-22T23:13:50.290Z,12.95
2019-05-22T23:16:18.853Z,12.70
2019-05-22T23:18:48.045Z,12.65
2019-05-22T23:21:16.571Z,11.73
2019-05-22T23:23:43.929Z,11.85
2019-05-22T23:26:11.507Z,11.22
2019-05-22T23:28:40.716Z,12.10
2019-05-22T23:31:09.789Z,12.40
2019-05-22T23:33:37.567Z,12.80
2019-05-22T23:36:05.442Z,11.88
2019-05-22T23:38:33.237Z,11.88
2019-05-22T23:41:00.963Z,13.30
2019-05-22T23:43:28.335Z,14.05
2019-05-22T23:45:56.435Z,13.48
2019-05-22T23:48:24.103Z,16.05
2019-05-22T23:50:52.187Z,15.93
2019-05-22T23:53:21.171Z,14.50
2019-05-22T23:55:49.904Z,15.65
2019-05-22T23:58:17.670Z,12.70
